createdAt,value
2018-01-05T00:00:35.779Z,7.53
2018-01-05T00:03:03.287Z,18.40
2018-01-05T00:05:30.742Z,9.90
2018-01-05T00:07:58.199Z,15.80
2018-01-05T00:10:25.683Z,11.30
2018-01-05T00:12:53.187Z,6.80
2018-01-05T00:15:20.666Z,11.57
2018-01-05T00:17:48.126Z,12.03
2018-01-05T00:20:15.610Z,7.47
2018-01-05T00:22:43.055Z,5.83
2018-01-05T00:25:10.520Z,7.87
2018-01-05T00:27:37.979Z,12.77
2018-01-05T00:30:05.452Z,6.67
2018-01-05T00:32:32.907Z,7.73
2018-01-05T00:35:00.363Z,7.10
2018-01-05T00:37:38.991Z,6.77
2018-01-05T00:40:06.438Z,17.33
2018-01-05T00:42:33.910Z,6.30
2018-01-05T00:45:01.364Z,10.53
2018-01-05T00:47:28.843Z,12.43
2018-01-05T00:49:56.291Z,14.27
2018-01-05T00:52:23.766Z,9.60
2018-01-05T00:54:57.342Z,13.60
2018-01-05T00:57:24.819Z,10.30
2018-01-05T00:59:52.884Z,6.03
2018-01-05T01:02:20.351Z,9.30
2018-01-05T01:04:47.810Z,13.17
2018-01-05T01:07:15.299Z,10.97
2018-01-05T01:09:42.754Z,18.93
2018-01-05T01:12:10.211Z,12.30
2018-01-05T01:14:37.690Z,12.10
2018-01-05T01:17:05.146Z,10.70
2018-01-05T01:19:32.635Z,13.10
2018-01-05T01:22:00.124Z,13.00
2018-01-05T01:24:27.607Z,17.10
2018-01-05T01:26:55.067Z,12.53
2018-01-05T01:29:26.534Z,12.47
2018-01-05T01:31:53.986Z,9.40
2018-01-05T01:34:21.455Z,16.50
2018-01-05T01:36:48.903Z,17.83
2018-01-05T01:39:16.398Z,14.03
2018-01-05T01:41:43.847Z,10.43
2018-01-05T01:44:11.324Z,8.00
2018-01-05T01:46:38.779Z,11.90
2018-01-05T01:49:06.235Z,11.43
2018-01-05T01:51:33.719Z,13.50
2018-01-05T01:54:01.166Z,17.97
2018-01-05T01:56:28.653Z,14.30
2018-01-05T01:58:56.111Z,13.87
2018-01-05T02:01:23.619Z,10.43
2018-01-05T02:03:51.070Z,14.03
2018-01-05T02:06:18.542Z,13.33
2018-01-05T02:08:45.994Z,15.73
2018-01-05T02:11:13.483Z,18.93
2018-01-05T02:13:40.942Z,15.40
2018-01-05T02:16:08.393Z,20.57
2018-01-05T02:18:35.884Z,14.83
2018-01-05T02:21:03.344Z,17.00
2018-01-05T02:23:30.814Z,20.47
2018-01-05T02:25:58.275Z,13.30
2018-01-05T02:28:25.751Z,12.43
2018-01-05T02:30:53.204Z,17.50
2018-01-05T02:33:20.671Z,19.27
2018-01-05T02:35:48.135Z,12.40
2018-01-05T02:38:15.626Z,11.23
2018-01-05T02:40:43.083Z,18.80
2018-01-05T02:43:10.534Z,15.80
2018-01-05T02:45:38.020Z,14.97
2018-01-05T02:48:05.471Z,12.03
2018-01-05T02:50:32.975Z,10.87
2018-01-05T02:53:00.419Z,9.83
2018-01-05T02:55:27.895Z,12.40
2018-01-05T02:57:55.350Z,14.30
2018-01-05T03:00:22.824Z,14.10
2018-01-05T03:02:50.280Z,12.00
2018-01-05T03:05:17.756Z,11.40
2018-01-05T03:07:45.219Z,12.43
2018-01-05T03:10:12.702Z,16.70
2018-01-05T03:12:40.150Z,11.00
2018-01-05T03:15:07.604Z,13.83
2018-01-05T03:17:35.079Z,14.77
2018-01-05T03:20:02.530Z,13.77
2018-01-05T03:22:30.013Z,18.20
2018-01-05T03:24:57.462Z,13.73
2018-01-05T03:27:24.932Z,16.03
2018-01-05T03:29:52.383Z,14.77
2018-01-05T03:32:19.854Z,22.17
2018-01-05T03:34:47.318Z,14.00
2018-01-05T03:37:14.792Z,14.90
2018-01-05T03:39:42.251Z,15.50
2018-01-05T03:42:09.735Z,18.20
2018-01-05T03:44:37.203Z,12.70
2018-01-05T03:47:04.650Z,10.03
2018-01-05T03:49:32.124Z,13.73
2018-01-05T03:52:00.414Z,11.97
2018-01-05T03:54:27.886Z,12.23
2018-01-05T03:56:55.332Z,8.27
2018-01-05T03:59:22.807Z,9.17
2018-01-05T04:01:50.252Z,9.73
2018-01-05T04:04:17.722Z,13.07
2018-01-05T04:06:45.167Z,8.47
2018-01-05T04:09:12.652Z,7.93
2018-01-05T04:11:40.095Z,5.20
2018-01-05T04:14:07.539Z,6.87
2018-01-05T04:16:35.011Z,8.03
2018-01-05T04:19:02.475Z,10.73
2018-01-05T04:21:29.946Z,3.37
2018-01-05T04:23:57.395Z,10.50
2018-01-05T04:26:24.867Z,6.70
2018-01-05T04:28:52.323Z,7.20
2018-01-05T04:31:19.794Z,5.83
2018-01-05T04:33:47.251Z,5.93
2018-01-05T04:36:14.734Z,6.13
2018-01-05T04:38:42.195Z,6.67
2018-01-05T04:41:09.678Z,3.80
2018-01-05T04:43:37.133Z,2.63
2018-01-05T04:46:04.593Z,1.80
2018-01-05T04:48:32.071Z,5.63
2018-01-05T04:50:59.524Z,5.20
2018-01-05T04:53:26.995Z,3.00
2018-01-05T04:55:54.441Z,5.83
2018-01-05T04:58:21.944Z,3.13
2018-01-05T05:00:49.378Z,5.57
2018-01-05T05:03:16.847Z,7.17
2018-01-05T05:05:44.305Z,5.30
2018-01-05T05:08:11.774Z,3.13
2018-01-05T05:10:39.230Z,4.37
2018-01-05T05:13:06.711Z,7.43
2018-01-05T05:15:34.166Z,8.23
2018-01-05T05:18:01.624Z,8.77
2018-01-05T05:20:29.102Z,6.77
2018-01-05T05:22:56.550Z,5.37
2018-01-05T05:25:24.039Z,7.23
2018-01-05T05:27:51.490Z,4.93
2018-01-05T05:30:18.967Z,11.97
2018-01-05T05:32:46.435Z,4.20
2018-01-05T05:35:13.906Z,8.40
2018-01-05T05:37:41.363Z,2.97
2018-01-05T05:40:08.826Z,4.13
2018-01-05T05:42:36.279Z,4.93
2018-01-05T05:45:03.752Z,5.47
2018-01-05T05:47:31.206Z,2.70
2018-01-05T05:49:58.676Z,5.27
2018-01-05T05:52:26.152Z,5.27
2018-01-05T05:54:53.604Z,4.23
2018-01-05T05:57:21.079Z,4.63
2018-01-05T05:59:48.539Z,7.63
2018-01-05T06:02:16.019Z,0.97
2018-01-05T06:04:43.477Z,3.63
2018-01-05T06:07:10.964Z,8.83
2018-01-05T06:09:38.419Z,3.43
2018-01-05T06:12:05.904Z,8.90
2018-01-05T06:14:33.355Z,6.33
2018-01-05T06:17:00.819Z,4.27
2018-01-05T06:19:28.273Z,4.10
2018-01-05T06:21:55.744Z,3.30
2018-01-05T06:24:23.199Z,7.00
2018-01-05T06:26:50.693Z,4.30
2018-01-05T06:29:18.144Z,7.17
2018-01-05T06:31:45.591Z,8.90
2018-01-05T06:34:13.071Z,12.33
2018-01-05T06:36:40.523Z,8.57
2018-01-05T06:39:08.015Z,6.63
2018-01-05T06:41:35.489Z,6.03
2018-01-05T06:44:02.963Z,6.00
2018-01-05T06:46:30.410Z,4.07
2018-01-05T06:48:57.876Z,5.37
2018-01-05T06:51:25.333Z,11.63
2018-01-05T06:53:52.811Z,11.20
2018-01-05T06:56:20.269Z,6.47
2018-01-05T06:58:47.754Z,7.43
2018-01-05T07:01:15.206Z,6.17
2018-01-05T07:03:42.675Z,5.87
2018-01-05T07:06:10.139Z,6.93
2018-01-05T07:08:37.587Z,8.37
2018-01-05T07:11:05.052Z,5.20
2018-01-05T07:13:32.503Z,8.93
2018-01-05T07:15:59.982Z,8.20
2018-01-05T07:18:27.439Z,8.20
2018-01-05T07:20:54.912Z,8.57
2018-01-05T07:23:22.383Z,14.50
2018-01-05T07:25:49.859Z,15.60
2018-01-05T07:28:17.316Z,9.90
2018-01-05T07:30:44.777Z,12.13
2018-01-05T07:33:12.256Z,7.77
2018-01-05T07:35:39.711Z,9.83
2018-01-05T07:38:07.188Z,6.30
2018-01-05T07:40:34.644Z,10.37
2018-01-05T07:43:02.152Z,11.83
2018-01-05T07:45:29.611Z,5.80
2018-01-05T07:47:57.080Z,5.90
2018-01-05T07:50:24.531Z,6.00
2018-01-05T07:52:57.915Z,7.90
2018-01-05T07:55:25.369Z,4.97
2018-01-05T07:57:52.851Z,8.57
2018-01-05T08:00:20.294Z,4.77
2018-01-05T08:02:47.744Z,7.33
2018-01-05T08:05:15.218Z,9.60
2018-01-05T08:07:42.674Z,7.37
2018-01-05T08:10:10.139Z,9.03
2018-01-05T08:12:37.595Z,7.70
2018-01-05T08:15:05.072Z,11.13
2018-01-05T08:17:32.531Z,9.82
2018-01-05T08:20:00.019Z,7.07
2018-01-05T08:22:27.476Z,9.87
2018-01-05T08:24:55.435Z,7.50
2018-01-05T08:27:22.891Z,12.33
2018-01-05T08:29:50.344Z,11.57
2018-01-05T08:32:17.815Z,8.40
2018-01-05T08:34:45.271Z,6.47
2018-01-05T08:37:12.743Z,6.93
2018-01-05T08:39:40.198Z,9.00
2018-01-05T08:42:07.721Z,10.33
2018-01-05T08:44:35.183Z,10.67
2018-01-05T08:47:02.663Z,7.67
2018-01-05T08:49:30.119Z,8.90
2018-01-05T08:51:57.619Z,8.50
2018-01-05T08:54:25.071Z,12.00
2018-01-05T08:56:52.529Z,7.07
2018-01-05T08:59:19.998Z,8.17
2018-01-05T09:01:47.447Z,4.63
2018-01-05T09:04:14.923Z,3.73
2018-01-05T09:06:42.370Z,4.83
2018-01-05T09:09:09.854Z,9.87
2018-01-05T09:11:37.359Z,7.87
2018-01-05T09:14:04.826Z,7.70
2018-01-05T09:16:32.274Z,8.80
2018-01-05T09:18:59.756Z,11.00
2018-01-05T09:21:37.534Z,6.80
2018-01-05T09:24:05.003Z,7.50
2018-01-05T09:26:32.457Z,7.20
2018-01-05T09:28:59.927Z,10.40
2018-01-05T09:31:27.387Z,12.23
2018-01-05T09:33:54.854Z,5.63
2018-01-05T09:36:22.317Z,11.03
2018-01-05T09:38:49.802Z,11.53
2018-01-05T09:41:17.259Z,12.50
2018-01-05T09:43:44.735Z,8.90
2018-01-05T09:46:12.198Z,14.90
2018-01-05T09:48:39.672Z,7.70
2018-01-05T09:51:07.140Z,10.47
2018-01-05T09:53:34.643Z,10.03
2018-01-05T09:56:04.046Z,12.20
2018-01-05T09:58:31.528Z,15.13
2018-01-05T10:00:58.981Z,10.17
2018-01-05T10:03:26.463Z,10.73
2018-01-05T10:05:53.930Z,8.73
2018-01-05T10:08:21.447Z,12.23
2018-01-05T10:10:52.579Z,10.87
2018-01-05T10:13:24.163Z,11.80
2018-01-05T10:15:51.617Z,8.53
2018-01-05T10:18:19.106Z,9.57
2018-01-05T10:20:46.558Z,8.83
2018-01-05T10:23:14.016Z,8.20
2018-01-05T10:25:41.499Z,7.23
2018-01-05T10:28:08.961Z,11.23
2018-01-05T10:30:36.447Z,12.87
2018-01-05T10:33:03.909Z,11.10
2018-01-05T10:35:31.387Z,15.07
2018-01-05T10:37:58.846Z,11.97
2018-01-05T10:40:26.319Z,12.33
2018-01-05T10:42:53.788Z,9.70
2018-01-05T10:45:22.255Z,9.23
2018-01-05T10:47:49.758Z,15.00
2018-01-05T10:50:17.227Z,12.87
2018-01-05T10:52:44.707Z,9.70
2018-01-05T10:55:12.185Z,13.10
2018-01-05T10:57:39.639Z,8.37
2018-01-05T11:00:07.115Z,8.23
2018-01-05T11:02:34.572Z,12.03
2018-01-05T11:05:02.068Z,10.53
2018-01-05T11:07:29.528Z,8.47
2018-01-05T11:09:57.007Z,10.40
2018-01-05T11:12:24.522Z,13.37
2018-01-05T11:14:52.012Z,12.68
2018-01-05T11:17:19.459Z,9.90
2018-01-05T11:19:46.933Z,11.67
2018-01-05T11:22:14.386Z,10.97
2018-01-05T11:24:41.879Z,11.43
2018-01-05T11:27:09.339Z,12.17
2018-01-05T11:29:36.831Z,12.17
2018-01-05T11:32:04.291Z,9.70
2018-01-05T11:34:31.772Z,10.27
2018-01-05T11:36:59.223Z,9.20
2018-01-05T11:39:26.717Z,12.40
2018-01-05T11:41:54.180Z,13.70
2018-01-05T11:44:21.746Z,15.20
2018-01-05T11:46:49.222Z,12.43
2018-01-05T11:49:16.682Z,13.03
2018-01-05T11:51:44.166Z,15.93
2018-01-05T11:54:11.623Z,14.10
2018-01-05T11:56:39.124Z,12.60
2018-01-05T11:59:06.575Z,13.93
2018-01-05T12:01:34.076Z,12.13
2018-01-05T12:04:01.530Z,14.87
2018-01-05T12:06:29.015Z,13.43
2018-01-05T12:08:56.476Z,14.40
2018-01-05T12:11:23.970Z,14.23
2018-01-05T12:13:51.431Z,14.53
2018-01-05T12:16:18.911Z,13.87
2018-01-05T12:18:46.380Z,14.43
2018-01-05T12:21:13.866Z,14.10
2018-01-05T12:23:41.323Z,13.93
2018-01-05T12:26:08.799Z,15.13
2018-01-05T12:28:36.260Z,13.57
2018-01-05T12:31:03.744Z,10.00
2018-01-05T12:33:31.211Z,12.37
2018-01-05T12:35:58.719Z,17.00
2018-01-05T12:38:26.191Z,11.40
2018-01-05T12:40:53.678Z,11.57
2018-01-05T12:43:21.135Z,10.80
2018-01-05T12:45:48.619Z,14.37
2018-01-05T12:48:16.086Z,15.03
2018-01-05T12:50:43.570Z,14.73
2018-01-05T12:53:11.032Z,13.60
2018-01-05T12:55:38.507Z,16.00
2018-01-05T12:58:05.995Z,17.63
2018-01-05T13:00:33.482Z,14.47
2018-01-05T13:03:00.935Z,24.00
2018-01-05T13:05:28.404Z,52.13
2018-01-05T13:07:55.890Z,39.80
2018-01-05T13:10:23.354Z,18.90
2018-01-05T13:12:50.835Z,13.50
2018-01-05T13:15:18.299Z,54.00
2018-01-05T13:17:45.783Z,48.60
2018-01-05T13:20:13.243Z,30.40
2018-01-05T13:22:40.728Z,41.50
2018-01-05T13:25:08.193Z,24.77
2018-01-05T13:27:35.671Z,15.80
2018-01-05T13:30:03.131Z,14.37
2018-01-05T13:32:30.619Z,16.73
2018-01-05T13:34:58.080Z,20.47
2018-01-05T13:37:25.560Z,12.53
2018-01-05T13:39:53.022Z,23.33
2018-01-05T13:42:20.501Z,18.83
2018-01-05T13:44:47.968Z,17.63
2018-01-05T13:47:15.464Z,10.23
2018-01-05T13:49:42.933Z,15.80
2018-01-05T13:52:10.411Z,14.63
2018-01-05T13:54:37.866Z,16.73
2018-01-05T13:57:05.348Z,11.93
2018-01-05T13:59:32.804Z,11.67
2018-01-05T14:02:00.283Z,10.47
2018-01-05T14:04:27.743Z,16.07
2018-01-05T14:06:55.220Z,16.17
2018-01-05T14:09:22.671Z,13.07
2018-01-05T14:11:50.162Z,11.77
2018-01-05T14:14:17.626Z,14.07
2018-01-05T14:16:45.099Z,14.77
2018-01-05T14:19:12.571Z,15.73
2018-01-05T14:21:40.055Z,13.97
2018-01-05T14:24:07.583Z,14.83
2018-01-05T14:26:35.051Z,13.73
2018-01-05T14:29:02.528Z,13.47
2018-01-05T14:31:29.975Z,13.43
2018-01-05T14:33:57.467Z,14.40
2018-01-05T14:36:24.919Z,14.90
2018-01-05T14:38:52.395Z,14.90
2018-01-05T14:41:19.846Z,13.40
2018-01-05T14:43:47.318Z,11.73
2018-01-05T14:46:14.770Z,16.90
2018-01-05T14:48:42.245Z,13.90
2018-01-05T14:51:09.700Z,11.73
2018-01-05T14:53:37.178Z,13.07
2018-01-05T14:56:04.642Z,15.03
2018-01-05T14:58:32.118Z,10.23
2018-01-05T15:00:59.587Z,18.50
2018-01-05T15:03:27.063Z,16.87
2018-01-05T15:05:54.520Z,15.37
2018-01-05T15:08:21.991Z,15.83
2018-01-05T15:10:49.494Z,15.53
2018-01-05T15:13:16.952Z,10.53
2018-01-05T15:15:44.415Z,11.67
2018-01-05T15:18:11.912Z,11.00
2018-01-05T15:20:39.366Z,13.87
2018-01-05T15:23:06.831Z,13.23
2018-01-05T15:25:34.279Z,11.43
2018-01-05T15:28:01.763Z,10.77
2018-01-05T15:30:29.395Z,16.30
2018-01-05T15:32:56.871Z,14.93
2018-01-05T15:35:24.335Z,14.53
2018-01-05T15:37:51.824Z,12.90
2018-01-05T15:40:19.281Z,14.50
2018-01-05T15:42:46.754Z,16.37
2018-01-05T15:45:14.209Z,11.57
2018-01-05T15:47:41.666Z,12.67
2018-01-05T15:50:09.139Z,10.47
2018-01-05T15:52:36.594Z,13.17
2018-01-05T15:55:04.074Z,8.37
2018-01-05T15:57:31.551Z,14.40
2018-01-05T15:59:59.029Z,9.37
2018-01-05T16:02:26.495Z,11.50
2018-01-05T16:04:53.984Z,13.97
2018-01-05T16:07:21.449Z,14.07
2018-01-05T16:09:48.915Z,17.10
2018-01-05T16:12:16.371Z,8.63
2018-01-05T16:14:43.851Z,13.23
2018-01-05T16:17:11.307Z,10.60
2018-01-05T16:19:38.791Z,13.80
2018-01-05T16:22:06.251Z,13.60
2018-01-05T16:24:33.726Z,14.20
2018-01-05T16:27:01.177Z,11.33
2018-01-05T16:29:28.659Z,65.00
2018-01-05T16:31:56.131Z,31.20
2018-01-05T16:34:23.632Z,11.07
2018-01-05T16:36:51.093Z,13.83
2018-01-05T16:39:18.574Z,17.00
2018-01-05T16:41:46.037Z,14.30
2018-01-05T16:44:13.523Z,16.53
2018-01-05T16:46:40.981Z,11.77
2018-01-05T16:49:08.468Z,12.00
2018-01-05T16:51:35.983Z,14.83
2018-01-05T16:54:03.436Z,13.03
2018-01-05T16:56:30.907Z,12.43
2018-01-05T16:58:58.409Z,10.90
2018-01-05T17:01:25.863Z,15.37
2018-01-05T17:03:53.330Z,12.07
2018-01-05T17:06:20.787Z,15.13
2018-01-05T17:08:48.247Z,11.37
2018-01-05T17:11:15.802Z,15.07
2018-01-05T17:13:43.255Z,12.43
2018-01-05T17:16:11.541Z,15.47
2018-01-05T17:18:38.999Z,12.23
2018-01-05T17:21:06.772Z,18.07
2018-01-05T17:23:34.280Z,9.73
2018-01-05T17:26:01.809Z,12.13
2018-01-05T17:28:29.306Z,11.10
2018-01-05T17:30:56.806Z,12.20
2018-01-05T17:33:25.228Z,10.33
2018-01-05T17:35:52.739Z,8.77
2018-01-05T17:38:20.227Z,11.40
2018-01-05T17:40:47.819Z,12.30
2018-01-05T17:43:15.300Z,10.43
2018-01-05T17:45:42.808Z,14.47
2018-01-05T17:48:10.295Z,14.53
2018-01-05T17:50:37.783Z,12.27
2018-01-05T17:53:05.264Z,10.87
2018-01-05T17:55:32.781Z,12.07
2018-01-05T17:58:00.357Z,10.73
2018-01-05T18:00:27.824Z,15.47
2018-01-05T18:02:55.307Z,10.20
2018-01-05T18:05:25.129Z,8.50
2018-01-05T18:07:56.512Z,9.37
2018-01-05T18:10:27.683Z,9.30
2018-01-05T18:12:55.393Z,13.53
2018-01-05T18:15:24.551Z,13.13
2018-01-05T18:17:52.630Z,11.60
2018-01-05T18:20:23.400Z,12.47
2018-01-05T18:22:52.871Z,13.57
2018-01-05T18:25:20.792Z,13.00
2018-01-05T18:27:51.010Z,16.40
2018-01-05T18:30:18.584Z,11.67
2018-01-05T18:32:46.075Z,11.07
2018-01-05T18:35:13.595Z,15.27
2018-01-05T18:37:41.091Z,16.57
2018-01-05T18:40:08.606Z,13.03
2018-01-05T18:42:36.364Z,14.07
2018-01-05T18:45:04.051Z,15.80
2018-01-05T18:47:31.543Z,11.87
2018-01-05T18:49:59.026Z,14.63
2018-01-05T18:52:26.532Z,12.73
2018-01-05T18:55:01.432Z,12.33
2018-01-05T18:57:34.074Z,16.40
2018-01-05T19:08:06.378Z,11.50
2018-01-05T19:10:36.657Z,6.50
2018-01-05T19:13:05.133Z,8.03
2018-01-05T19:15:33.991Z,5.40
2018-01-05T19:23:13.136Z,7.27
2018-01-05T19:25:40.661Z,4.03
2018-01-05T19:28:08.199Z,2.37
2018-01-05T19:30:43.092Z,4.87
2018-01-05T19:33:14.000Z,3.37
2018-01-05T19:35:44.012Z,3.77
2018-01-05T19:38:15.071Z,3.87
2018-01-05T19:40:45.102Z,4.03
2018-01-05T19:43:13.657Z,3.63
2018-01-05T19:45:41.255Z,3.13
2018-01-05T19:48:09.857Z,8.67
2018-01-05T19:50:41.001Z,8.40
2018-01-05T19:53:08.568Z,10.67
2018-01-05T19:55:36.176Z,12.83
2018-01-05T19:58:03.758Z,7.33
2018-01-05T20:00:31.293Z,7.57
2018-01-05T20:02:58.974Z,6.67
2018-01-05T20:05:27.359Z,2.70
2018-01-05T20:07:54.884Z,1.73
2018-01-05T20:10:22.562Z,4.10
2018-01-05T20:12:52.364Z,4.07
2018-01-05T20:15:19.902Z,3.07
2018-01-05T20:17:48.435Z,3.43
2018-01-05T20:22:53.444Z,3.17
2018-01-05T20:25:20.970Z,1.80
2018-01-05T20:27:48.495Z,5.97
2018-01-05T20:30:16.028Z,2.63
2018-01-05T20:56:00.412Z,3.10
2018-01-05T20:58:28.220Z,2.43
2018-01-05T21:00:55.683Z,4.60
2018-01-05T21:03:40.068Z,3.73
2018-01-05T21:06:10.934Z,3.13
2018-01-05T21:11:40.771Z,2.17
2018-01-05T21:16:51.189Z,5.60
2018-01-05T21:22:36.556Z,3.90
2018-01-05T21:25:26.766Z,2.83
2018-01-05T21:30:50.691Z,2.63
2018-01-05T21:33:18.175Z,3.30
2018-01-05T21:35:45.626Z,6.47
2018-01-05T21:38:13.126Z,4.43
2018-01-05T21:40:40.584Z,4.10
2018-01-05T21:43:08.046Z,3.17
2018-01-05T21:45:35.531Z,2.43
2018-01-05T21:48:02.991Z,2.40
2018-01-05T21:50:30.470Z,2.43
2018-01-05T21:52:57.939Z,2.73
2018-01-05T21:55:25.410Z,3.40
2018-01-05T21:57:52.868Z,4.00
2018-01-05T22:00:20.347Z,2.57
2018-01-05T22:02:47.799Z,3.77
2018-01-05T22:05:15.294Z,5.23
2018-01-05T22:07:42.754Z,4.63
2018-01-05T22:10:10.243Z,5.27
2018-01-05T22:12:37.798Z,3.53
2018-01-05T22:15:05.256Z,1.80
2018-01-05T22:17:32.723Z,2.20
2018-01-05T22:20:00.177Z,6.20
2018-01-05T22:22:27.655Z,2.80
2018-01-05T22:24:55.116Z,3.27
2018-01-05T22:27:22.591Z,4.77
2018-01-05T22:29:50.057Z,5.37
2018-01-05T22:32:17.531Z,2.83
2018-01-05T22:34:44.982Z,5.30
2018-01-05T22:37:12.467Z,8.67
2018-01-05T22:39:39.918Z,7.43
2018-01-05T22:42:07.387Z,7.07
2018-01-05T22:44:34.838Z,6.80
2018-01-05T22:47:02.319Z,4.53
2018-01-05T22:49:29.786Z,5.07
2018-01-05T22:51:57.240Z,5.33
2018-01-05T22:54:24.720Z,7.10
2018-01-05T22:56:52.176Z,4.70
2018-01-05T22:59:19.652Z,5.27
2018-01-05T23:01:47.113Z,6.20
2018-01-05T23:04:14.599Z,10.43
2018-01-05T23:06:42.055Z,3.93
2018-01-05T23:09:09.527Z,3.47
2018-01-05T23:11:36.983Z,5.33
2018-01-05T23:14:04.465Z,7.57
2018-01-05T23:16:31.925Z,9.97
2018-01-05T23:18:59.403Z,9.10
2018-01-05T23:21:26.855Z,7.33
2018-01-05T23:23:54.343Z,6.93
2018-01-05T23:26:21.819Z,4.87
2018-01-05T23:28:49.278Z,6.17
2018-01-05T23:31:16.761Z,5.73
2018-01-05T23:33:44.222Z,6.30
2018-01-05T23:36:11.691Z,5.17
2018-01-05T23:38:39.146Z,4.77
2018-01-05T23:41:06.631Z,5.33
2018-01-05T23:43:34.086Z,5.20
2018-01-05T23:46:01.558Z,2.90
2018-01-05T23:48:29.007Z,4.93
2018-01-05T23:50:56.479Z,6.93
2018-01-05T23:53:23.995Z,8.53
2018-01-05T23:55:51.491Z,4.70
2018-01-05T23:58:18.945Z,3.87
